sensor_id;sensor_type;location;lat;lon;timestamp;pressure;altitude;pressure_sealevel;temperature;humidity
34482;BME280;20720;48.886;9.388;2023-03-31T00:00:26;97805.97;;;15.01;100.00
34482;BME280;20720;48.886;9.388;2023-03-31T00:02:51;97795.47;;;15.39;98.68
34482;BME280;20720;48.886;9.388;2023-03-31T00:05:19;97797.41;;;15.44;96.96
34482;BME280;20720;48.886;9.388;2023-03-31T00:07:45;97794.53;;;15.45;97.94
34482;BME280;20720;48.886;9.388;2023-03-31T00:10:13;97785.53;;;15.46;96.85
34482;BME280;20720;48.886;9.388;2023-03-31T00:12:38;97780.38;;;15.56;96.21
34482;BME280;20720;48.886;9.388;2023-03-31T00:15:04;97780.97;;;15.25;99.81
34482;BME280;20720;48.886;9.388;2023-03-31T00:17:29;97766.69;;;14.93;100.00
34482;BME280;20720;48.886;9.388;2023-03-31T00:19:58;97759.06;;;15.13;100.00
34482;BME280;20720;48.886;9.388;2023-03-31T00:22:25;97761.44;;;15.31;99.00
34482;BME280;20720;48.886;9.388;2023-03-31T00:24:54;97749.13;;;15.20;98.84
34482;BME280;20720;48.886;9.388;2023-03-31T00:27:19;97746.47;;;15.20;99.71
34482;BME280;20720;48.886;9.388;2023-03-31T00:29:44;97749.44;;;15.07;100.00
34482;BME280;20720;48.886;9.388;2023-03-31T00:32:10;97745.94;;;15.01;100.00
34482;BME280;20720;48.886;9.388;2023-03-31T00:34:36;97741.59;;;14.95;100.00
34482;BME280;20720;48.886;9.388;2023-03-31T00:37:02;97730.47;;;15.10;100.00
34482;BME280;20720;48.886;9.388;2023-03-31T00:39:28;97735.75;;;15.10;100.00
34482;BME280;20720;48.886;9.388;2023-03-31T00:42:01;97730.69;;;14.92;100.00
34482;BME280;20720;48.886;9.388;2023-03-31T00:44:28;97725.25;;;14.65;100.00
34482;BME280;20720;48.886;9.388;2023-03-31T00:46:56;97727.69;;;14.39;100.00
34482;BME280;20720;48.886;9.388;2023-03-31T00:49:28;97720.13;;;14.75;100.00
34482;BME280;20720;48.886;9.388;2023-03-31T00:52:07;97715.47;;;14.66;100.00
34482;BME280;20720;48.886;9.388;2023-03-31T00:54:38;97713.94;;;14.86;100.00
34482;BME280;20720;48.886;9.388;2023-03-31T00:57:05;97697.69;;;14.78;100.00
34482;BME280;20720;48.886;9.388;2023-03-31T00:59:36;97697.91;;;14.43;100.00
34482;BME280;20720;48.886;9.388;2023-03-31T01:02:03;97690.63;;;14.67;100.00
34482;BME280;20720;48.886;9.388;2023-03-31T01:04:34;97691.75;;;14.71;100.00
34482;BME280;20720;48.886;9.388;2023-03-31T01:09:57;97700.56;;;14.60;100.00
34482;BME280;20720;48.886;9.388;2023-03-31T01:12:24;97701.38;;;14.44;100.00
34482;BME280;20720;48.886;9.388;2023-03-31T01:14:51;97700.69;;;14.37;100.00
34482;BME280;20720;48.886;9.388;2023-03-31T01:17:19;97696.81;;;14.89;100.00
34482;BME280;20720;48.886;9.388;2023-03-31T01:45:30;97630.44;;;15.72;92.49
34482;BME280;20720;48.886;9.388;2023-03-31T01:47:51;97628.28;;;15.47;92.19
34482;BME280;20720;48.886;9.388;2023-03-31T01:50:30;97637.97;;;15.20;94.82
34482;BME280;20720;48.886;9.388;2023-03-31T01:53:32;97637.97;;;15.20;94.64
34482;BME280;20720;48.886;9.388;2023-03-31T01:56:17;97638.94;;;15.14;95.80
34482;BME280;20720;48.886;9.388;2023-03-31T01:58:53;97643.75;;;15.17;95.49
34482;BME280;20720;48.886;9.388;2023-03-31T02:01:26;97634.72;;;15.35;95.51
34482;BME280;20720;48.886;9.388;2023-03-31T02:04:16;97644.88;;;15.21;97.33
34482;BME280;20720;48.886;9.388;2023-03-31T02:06:50;97648.59;;;15.03;97.77
34482;BME280;20720;48.886;9.388;2023-03-31T02:09:22;97650.31;;;14.93;96.84
34482;BME280;20720;48.886;9.388;2023-03-31T02:11:50;97657.06;;;14.51;100.00
34482;BME280;20720;48.886;9.388;2023-03-31T02:14:20;97658.44;;;14.70;100.00
34482;BME280;20720;48.886;9.388;2023-03-31T02:16:49;97654.81;;;14.59;100.00
34482;BME280;20720;48.886;9.388;2023-03-31T02:19:18;97652.88;;;14.71;100.00
34482;BME280;20720;48.886;9.388;2023-03-31T02:21:47;97652.97;;;14.60;100.00
34482;BME280;20720;48.886;9.388;2023-03-31T02:24:14;97642.06;;;14.73;100.00
34482;BME280;20720;48.886;9.388;2023-03-31T02:27:10;97631.59;;;14.99;100.00
34482;BME280;20720;48.886;9.388;2023-03-31T02:29:37;97626.06;;;14.46;100.00
34482;BME280;20720;48.886;9.388;2023-03-31T02:32:14;97622.69;;;14.67;100.00
34482;BME280;20720;48.886;9.388;2023-03-31T02:34:40;97615.78;;;14.16;100.00
34482;BME280;20720;48.886;9.388;2023-03-31T02:37:06;97613.47;;;14.37;100.00
34482;BME280;20720;48.886;9.388;2023-03-31T02:39:34;97609.25;;;14.36;100.00
34482;BME280;20720;48.886;9.388;2023-03-31T02:42:01;97604.28;;;14.39;100.00
34482;BME280;20720;48.886;9.388;2023-03-31T02:44:32;97604.00;;;14.24;100.00
34482;BME280;20720;48.886;9.388;2023-03-31T02:46:58;97608.47;;;14.24;100.00
34482;BME280;20720;48.886;9.388;2023-03-31T02:49:23;97587.59;;;14.05;100.00
34482;BME280;20720;48.886;9.388;2023-03-31T02:55:11;97571.50;;;14.24;100.00
34482;BME280;20720;48.886;9.388;2023-03-31T03:00:28;97533.63;;;14.35;100.00
34482;BME280;20720;48.886;9.388;2023-03-31T03:03:18;97533.16;;;14.21;100.00
34482;BME280;20720;48.886;9.388;2023-03-31T03:06:17;97528.47;;;14.61;100.00
34482;BME280;20720;48.886;9.388;2023-03-31T03:09:22;97519.34;;;14.31;100.00
34482;BME280;20720;48.886;9.388;2023-03-31T03:14:56;97502.09;;;14.11;100.00
34482;BME280;20720;48.886;9.388;2023-03-31T03:17:53;97485.13;;;14.62;100.00
34482;BME280;20720;48.886;9.388;2023-03-31T03:20:20;97462.75;;;14.70;100.00
34482;BME280;20720;48.886;9.388;2023-03-31T03:22:46;97463.19;;;14.62;100.00
34482;BME280;20720;48.886;9.388;2023-03-31T03:25:13;97447.75;;;14.15;100.00
34482;BME280;20720;48.886;9.388;2023-03-31T03:27:39;97439.63;;;14.39;100.00
34482;BME280;20720;48.886;9.388;2023-03-31T03:30:07;97437.81;;;14.61;100.00
34482;BME280;20720;48.886;9.388;2023-03-31T03:32:33;97424.00;;;14.37;100.00
34482;BME280;20720;48.886;9.388;2023-03-31T03:35:02;97411.53;;;14.33;100.00
34482;BME280;20720;48.886;9.388;2023-03-31T03:37:29;97411.59;;;14.38;100.00
34482;BME280;20720;48.886;9.388;2023-03-31T03:39:54;97411.19;;;14.46;100.00
34482;BME280;20720;48.886;9.388;2023-03-31T03:42:19;97407.69;;;14.24;100.00
34482;BME280;20720;48.886;9.388;2023-03-31T03:44:45;97410.44;;;14.50;100.00
34482;BME280;20720;48.886;9.388;2023-03-31T03:47:10;97399.31;;;14.70;100.00
34482;BME280;20720;48.886;9.388;2023-03-31T03:49:35;97395.19;;;14.36;100.00
34482;BME280;20720;48.886;9.388;2023-03-31T03:52:00;97392.69;;;14.46;100.00
34482;BME280;20720;48.886;9.388;2023-03-31T03:54:26;97381.72;;;14.59;100.00
34482;BME280;20720;48.886;9.388;2023-03-31T03:56:51;97388.59;;;14.60;100.00
34482;BME280;20720;48.886;9.388;2023-03-31T03:59:16;97382.59;;;14.43;100.00
34482;BME280;20720;48.886;9.388;2023-03-31T04:01:42;97382.88;;;14.46;100.00
34482;BME280;20720;48.886;9.388;2023-03-31T04:04:07;97370.50;;;14.73;100.00
34482;BME280;20720;48.886;9.388;2023-03-31T04:06:33;97362.25;;;14.43;100.00
34482;BME280;20720;48.886;9.388;2023-03-31T04:08:58;97356.88;;;14.16;100.00
34482;BME280;20720;48.886;9.388;2023-03-31T04:11:23;97349.28;;;14.42;100.00
34482;BME280;20720;48.886;9.388;2023-03-31T04:13:49;97338.59;;;14.32;100.00
34482;BME280;20720;48.886;9.388;2023-03-31T04:16:14;97331.56;;;14.21;100.00
34482;BME280;20720;48.886;9.388;2023-03-31T04:18:40;97323.25;;;14.12;100.00
34482;BME280;20720;48.886;9.388;2023-03-31T04:21:08;97312.38;;;14.08;100.00
34482;BME280;20720;48.886;9.388;2023-03-31T04:23:37;97308.06;;;13.59;100.00
34482;BME280;20720;48.886;9.388;2023-03-31T04:26:10;97300.88;;;13.55;100.00
34482;BME280;20720;48.886;9.388;2023-03-31T04:28:36;97299.19;;;13.49;100.00
34482;BME280;20720;48.886;9.388;2023-03-31T04:31:02;97285.00;;;13.71;100.00
34482;BME280;20720;48.886;9.388;2023-03-31T04:33:30;97285.47;;;13.68;100.00
34482;BME280;20720;48.886;9.388;2023-03-31T04:35:58;97279.47;;;13.51;100.00
34482;BME280;20720;48.886;9.388;2023-03-31T04:38:30;97269.28;;;13.81;100.00
34482;BME280;20720;48.886;9.388;2023-03-31T04:40:57;97268.94;;;13.94;100.00
34482;BME280;20720;48.886;9.388;2023-03-31T04:43:23;97277.50;;;14.06;100.00
34482;BME280;20720;48.886;9.388;2023-03-31T04:45:48;97273.09;;;13.90;100.00
34482;BME280;20720;48.886;9.388;2023-03-31T04:48:13;97268.91;;;13.73;100.00
34482;BME280;20720;48.886;9.388;2023-03-31T04:50:39;97271.75;;;14.09;100.00
34482;BME280;20720;48.886;9.388;2023-03-31T04:53:05;97262.16;;;14.03;100.00
34482;BME280;20720;48.886;9.388;2023-03-31T04:55:31;97245.81;;;14.06;100.00
34482;BME280;20720;48.886;9.388;2023-03-31T04:57:56;97242.28;;;14.23;100.00
34482;BME280;20720;48.886;9.388;2023-03-31T05:00:22;97232.91;;;14.10;100.00
34482;BME280;20720;48.886;9.388;2023-03-31T05:02:47;97225.13;;;14.25;100.00
34482;BME280;20720;48.886;9.388;2023-03-31T05:05:13;97222.69;;;14.18;100.00
34482;BME280;20720;48.886;9.388;2023-03-31T05:07:38;97234.03;;;13.92;100.00
34482;BME280;20720;48.886;9.388;2023-03-31T05:10:05;97239.75;;;14.33;100.00
34482;BME280;20720;48.886;9.388;2023-03-31T05:12:34;97240.78;;;14.53;100.00
34482;BME280;20720;48.886;9.388;2023-03-31T05:15:00;97237.25;;;13.94;100.00
34482;BME280;20720;48.886;9.388;2023-03-31T05:17:26;97244.28;;;14.59;100.00
34482;BME280;20720;48.886;9.388;2023-03-31T05:19:51;97243.00;;;14.66;100.00
34482;BME280;20720;48.886;9.388;2023-03-31T05:22:17;97245.13;;;14.38;100.00
34482;BME280;20720;48.886;9.388;2023-03-31T05:24:45;97243.00;;;14.66;100.00
34482;BME280;20720;48.886;9.388;2023-03-31T05:27:10;97258.16;;;14.76;100.00
34482;BME280;20720;48.886;9.388;2023-03-31T05:29:36;97263.50;;;14.28;100.00
34482;BME280;20720;48.886;9.388;2023-03-31T05:32:01;97277.19;;;13.60;100.00
34482;BME280;20720;48.886;9.388;2023-03-31T05:34:27;97284.59;;;13.41;100.00
34482;BME280;20720;48.886;9.388;2023-03-31T05:36:52;97279.94;;;13.48;100.00
34482;BME280;20720;48.886;9.388;2023-03-31T05:39:18;97289.00;;;13.74;100.00
34482;BME280;20720;48.886;9.388;2023-03-31T05:41:43;97290.09;;;12.90;100.00
34482;BME280;20720;48.886;9.388;2023-03-31T05:44:08;97277.22;;;12.77;100.00
34482;BME280;20720;48.886;9.388;2023-03-31T05:46:34;97253.06;;;13.51;100.00
34482;BME280;20720;48.886;9.388;2023-03-31T05:48:59;97242.88;;;13.21;100.00
34482;BME280;20720;48.886;9.388;2023-03-31T05:51:24;97241.03;;;13.22;100.00
34482;BME280;20720;48.886;9.388;2023-03-31T05:53:50;97222.75;;;13.15;100.00
34482;BME280;20720;48.886;9.388;2023-03-31T05:56:15;97215.72;;;12.88;100.00
34482;BME280;20720;48.886;9.388;2023-03-31T05:58:40;97209.53;;;13.32;100.00
34482;BME280;20720;48.886;9.388;2023-03-31T06:01:13;97207.34;;;12.58;100.00
34482;BME280;20720;48.886;9.388;2023-03-31T06:03:43;97195.56;;;12.98;100.00
34482;BME280;20720;48.886;9.388;2023-03-31T06:06:09;97186.16;;;12.86;100.00
34482;BME280;20720;48.886;9.388;2023-03-31T06:08:37;97176.84;;;12.62;100.00
34482;BME280;20720;48.886;9.388;2023-03-31T06:11:07;97157.28;;;12.58;100.00
34482;BME280;20720;48.886;9.388;2023-03-31T06:13:34;97156.69;;;12.72;100.00
34482;BME280;20720;48.886;9.388;2023-03-31T06:15:59;97145.72;;;12.97;100.00
34482;BME280;20720;48.886;9.388;2023-03-31T06:18:29;97135.91;;;12.92;100.00
34482;BME280;20720;48.886;9.388;2023-03-31T06:20:55;97130.44;;;12.99;100.00
34482;BME280;20720;48.886;9.388;2023-03-31T06:23:21;97125.13;;;12.94;100.00
34482;BME280;20720;48.886;9.388;2023-03-31T06:25:47;97125.59;;;12.91;100.00
34482;BME280;20720;48.886;9.388;2023-03-31T06:28:12;97119.09;;;12.77;100.00
34482;BME280;20720;48.886;9.388;2023-03-31T06:30:38;97123.28;;;12.56;100.00
34482;BME280;20720;48.886;9.388;2023-03-31T06:33:03;97117.22;;;12.94;100.00
34482;BME280;20720;48.886;9.388;2023-03-31T06:35:29;97112.41;;;13.29;100.00
34482;BME280;20720;48.886;9.388;2023-03-31T06:37:54;97113.47;;;12.90;100.00
34482;BME280;20720;48.886;9.388;2023-03-31T06:40:19;97110.88;;;12.95;100.00
34482;BME280;20720;48.886;9.388;2023-03-31T06:42:45;97109.09;;;13.00;100.00
34482;BME280;20720;48.886;9.388;2023-03-31T06:45:10;97104.97;;;13.04;100.00
34482;BME280;20720;48.886;9.388;2023-03-31T06:47:35;97102.97;;;12.57;100.00
34482;BME280;20720;48.886;9.388;2023-03-31T06:50:06;97106.97;;;12.59;100.00
34482;BME280;20720;48.886;9.388;2023-03-31T06:52:32;97118.31;;;12.60;100.00
34482;BME280;20720;48.886;9.388;2023-03-31T06:54:58;97120.94;;;12.60;100.00
34482;BME280;20720;48.886;9.388;2023-03-31T06:57:24;97119.44;;;12.64;100.00
34482;BME280;20720;48.886;9.388;2023-03-31T06:59:50;97133.66;;;12.29;100.00
34482;BME280;20720;48.886;9.388;2023-03-31T07:02:15;97140.97;;;12.61;100.00
34482;BME280;20720;48.886;9.388;2023-03-31T07:04:40;97148.31;;;12.59;100.00
34482;BME280;20720;48.886;9.388;2023-03-31T07:07:05;97159.19;;;12.46;100.00
34482;BME280;20720;48.886;9.388;2023-03-31T07:09:31;97161.25;;;12.44;100.00
34482;BME280;20720;48.886;9.388;2023-03-31T07:11:56;97191.38;;;12.03;100.00
34482;BME280;20720;48.886;9.388;2023-03-31T07:14:21;97190.47;;;11.97;100.00
34482;BME280;20720;48.886;9.388;2023-03-31T07:16:47;97210.66;;;11.92;100.00
34482;BME280;20720;48.886;9.388;2023-03-31T07:19:12;97225.94;;;12.23;100.00
34482;BME280;20720;48.886;9.388;2023-03-31T07:21:39;97213.53;;;11.90;100.00
34482;BME280;20720;48.886;9.388;2023-03-31T07:24:04;97200.16;;;11.80;100.00
34482;BME280;20720;48.886;9.388;2023-03-31T07:26:30;97215.09;;;11.91;100.00
34482;BME280;20720;48.886;9.388;2023-03-31T07:28:55;97103.94;;;12.17;100.00
34482;BME280;20720;48.886;9.388;2023-03-31T07:31:21;97105.06;;;12.21;100.00
34482;BME280;20720;48.886;9.388;2023-03-31T07:33:47;97127.47;;;12.07;100.00
34482;BME280;20720;48.886;9.388;2023-03-31T07:36:12;97101.16;;;12.41;100.00
34482;BME280;20720;48.886;9.388;2023-03-31T07:38:41;97114.16;;;12.30;100.00
34482;BME280;20720;48.886;9.388;2023-03-31T07:41:12;97109.69;;;12.14;100.00
34482;BME280;20720;48.886;9.388;2023-03-31T07:43:37;97117.53;;;12.43;100.00
34482;BME280;20720;48.886;9.388;2023-03-31T07:46:03;97119.88;;;12.77;100.00
34482;BME280;20720;48.886;9.388;2023-03-31T07:48:29;97120.88;;;12.55;100.00
34482;BME280;20720;48.886;9.388;2023-03-31T07:50:54;97121.25;;;13.18;100.00
34482;BME280;20720;48.886;9.388;2023-03-31T07:53:20;97105.97;;;13.20;100.00
34482;BME280;20720;48.886;9.388;2023-03-31T07:55:46;97099.16;;;13.24;100.00
34482;BME280;20720;48.886;9.388;2023-03-31T07:58:12;97102.97;;;13.33;100.00
34482;BME280;20720;48.886;9.388;2023-03-31T08:00:37;97091.97;;;13.41;100.00
34482;BME280;20720;48.886;9.388;2023-03-31T08:03:02;97095.91;;;13.39;100.00
34482;BME280;20720;48.886;9.388;2023-03-31T08:05:28;97100.63;;;13.85;100.00
34482;BME280;20720;48.886;9.388;2023-03-31T08:07:53;97098.56;;;13.65;100.00
34482;BME280;20720;48.886;9.388;2023-03-31T08:10:22;97101.38;;;13.32;100.00
34482;BME280;20720;48.886;9.388;2023-03-31T08:12:48;97099.13;;;13.67;100.00
34482;BME280;20720;48.886;9.388;2023-03-31T08:15:13;97091.31;;;13.77;100.00
34482;BME280;20720;48.886;9.388;2023-03-31T08:17:39;97099.97;;;14.31;100.00
34482;BME280;20720;48.886;9.388;2023-03-31T08:20:04;97101.91;;;14.41;100.00
34482;BME280;20720;48.886;9.388;2023-03-31T08:22:37;97105.19;;;14.99;100.00
34482;BME280;20720;48.886;9.388;2023-03-31T08:25:03;97094.53;;;15.36;100.00
34482;BME280;20720;48.886;9.388;2023-03-31T08:27:34;97092.03;;;15.09;100.00
34482;BME280;20720;48.886;9.388;2023-03-31T08:30:00;97098.16;;;16.17;100.00
34482;BME280;20720;48.886;9.388;2023-03-31T08:32:29;97106.41;;;15.29;100.00
34482;BME280;20720;48.886;9.388;2023-03-31T08:34:54;97098.59;;;15.69;100.00
34482;BME280;20720;48.886;9.388;2023-03-31T08:37:20;97114.22;;;15.60;100.00
34482;BME280;20720;48.886;9.388;2023-03-31T08:39:45;97113.63;;;15.48;100.00
34482;BME280;20720;48.886;9.388;2023-03-31T08:42:15;97096.78;;;15.79;100.00
34482;BME280;20720;48.886;9.388;2023-03-31T08:44:49;97085.94;;;15.96;100.00
34482;BME280;20720;48.886;9.388;2023-03-31T08:47:21;97082.78;;;16.64;100.00
34482;BME280;20720;48.886;9.388;2023-03-31T08:49:51;97095.50;;;16.72;100.00
34482;BME280;20720;48.886;9.388;2023-03-31T08:52:23;97094.97;;;16.20;100.00
34482;BME280;20720;48.886;9.388;2023-03-31T08:54:56;97098.38;;;16.81;100.00
34482;BME280;20720;48.886;9.388;2023-03-31T08:57:27;97096.53;;;16.71;100.00
34482;BME280;20720;48.886;9.388;2023-03-31T08:59:54;97089.75;;;17.24;100.00
34482;BME280;20720;48.886;9.388;2023-03-31T09:02:34;97096.78;;;16.85;100.00
34482;BME280;20720;48.886;9.388;2023-03-31T09:10:40;97091.81;;;19.16;89.28
34482;BME280;20720;48.886;9.388;2023-03-31T09:13:23;97090.97;;;18.68;90.98
34482;BME280;20720;48.886;9.388;2023-03-31T09:16:07;97098.72;;;18.31;96.92
34482;BME280;20720;48.886;9.388;2023-03-31T09:18:37;97071.06;;;17.59;97.48
34482;BME280;20720;48.886;9.388;2023-03-31T09:24:19;97062.84;;;17.56;94.29
34482;BME280;20720;48.886;9.388;2023-03-31T09:26:51;97062.81;;;18.33;91.88
34482;BME280;20720;48.886;9.388;2023-03-31T09:29:29;97069.84;;;17.27;94.22
34482;BME280;20720;48.886;9.388;2023-03-31T09:32:05;97063.78;;;18.14;88.47
34482;BME280;20720;48.886;9.388;2023-03-31T09:34:37;97064.38;;;19.62;76.82
34482;BME280;20720;48.886;9.388;2023-03-31T09:37:03;97067.91;;;18.58;81.06
34482;BME280;20720;48.886;9.388;2023-03-31T09:39:29;97060.38;;;17.64;80.87
34482;BME280;20720;48.886;9.388;2023-03-31T09:41:54;97070.72;;;18.72;78.55
34482;BME280;20720;48.886;9.388;2023-03-31T09:44:35;97068.47;;;18.84;76.15
34482;BME280;20720;48.886;9.388;2023-03-31T09:47:02;97063.41;;;18.25;78.44
34482;BME280;20720;48.886;9.388;2023-03-31T09:49:33;97073.81;;;18.84;77.54
34482;BME280;20720;48.886;9.388;2023-03-31T09:52:03;97069.31;;;19.50;72.38
34482;BME280;20720;48.886;9.388;2023-03-31T09:54:35;97073.84;;;17.78;73.52
34482;BME280;20720;48.886;9.388;2023-03-31T09:57:02;97058.34;;;17.51;75.55
34482;BME280;20720;48.886;9.388;2023-03-31T09:59:32;97072.81;;;17.20;77.21
34482;BME280;20720;48.886;9.388;2023-03-31T10:02:00;97081.13;;;17.67;72.58
34482;BME280;20720;48.886;9.388;2023-03-31T10:04:29;97069.72;;;18.92;68.15
34482;BME280;20720;48.886;9.388;2023-03-31T10:06:56;97055.44;;;19.30;66.31
34482;BME280;20720;48.886;9.388;2023-03-31T10:09:31;97055.47;;;20.23;63.22
34482;BME280;20720;48.886;9.388;2023-03-31T10:12:06;97059.47;;;21.25;62.10
34482;BME280;20720;48.886;9.388;2023-03-31T10:14:47;97060.59;;;20.01;62.15
34482;BME280;20720;48.886;9.388;2023-03-31T10:17:15;97049.25;;;19.34;64.97
34482;BME280;20720;48.886;9.388;2023-03-31T10:24:45;97033.66;;;19.84;63.17
34482;BME280;20720;48.886;9.388;2023-03-31T10:27:23;97034.78;;;21.06;59.87
34482;BME280;20720;48.886;9.388;2023-03-31T10:29:54;97040.38;;;19.62;61.46
34482;BME280;20720;48.886;9.388;2023-03-31T10:32:23;97035.22;;;19.47;61.59
34482;BME280;20720;48.886;9.388;2023-03-31T10:34:50;97030.72;;;20.36;61.29
34482;BME280;20720;48.886;9.388;2023-03-31T10:37:21;97049.34;;;18.53;63.55
34482;BME280;20720;48.886;9.388;2023-03-31T10:39:55;97037.75;;;18.68;67.85
34482;BME280;20720;48.886;9.388;2023-03-31T10:42:21;97026.09;;;19.35;68.18
34482;BME280;20720;48.886;9.388;2023-03-31T10:44:47;97022.22;;;19.46;64.75
34482;BME280;20720;48.886;9.388;2023-03-31T10:49:40;97001.38;;;22.02;59.79
34482;BME280;20720;48.886;9.388;2023-03-31T10:52:16;97004.19;;;20.72;58.88
34482;BME280;20720;48.886;9.388;2023-03-31T10:54:47;96992.69;;;20.57;58.82
34482;BME280;20720;48.886;9.388;2023-03-31T10:57:13;96994.84;;;18.98;64.39
34482;BME280;20720;48.886;9.388;2023-03-31T11:05:09;97015.19;;;17.26;69.96
34482;BME280;20720;48.886;9.388;2023-03-31T11:07:41;97007.66;;;17.81;69.03
34482;BME280;20720;48.886;9.388;2023-03-31T11:13:47;96996.25;;;17.81;69.43
34482;BME280;20720;48.886;9.388;2023-03-31T11:16:32;96973.50;;;17.99;67.97
34482;BME280;20720;48.886;9.388;2023-03-31T11:22:04;96971.72;;;17.55;71.51
34482;BME280;20720;48.886;9.388;2023-03-31T11:24:59;96963.91;;;18.31;67.39
34482;BME280;20720;48.886;9.388;2023-03-31T11:30:37;97010.69;;;16.07;86.71
34482;BME280;20720;48.886;9.388;2023-03-31T11:33:17;97081.72;;;15.08;100.00
34482;BME280;20720;48.886;9.388;2023-03-31T11:36:17;97097.03;;;12.83;100.00
34482;BME280;20720;48.886;9.388;2023-03-31T11:39:01;97098.25;;;11.64;100.00
34482;BME280;20720;48.886;9.388;2023-03-31T11:41:37;97089.41;;;11.14;100.00
34482;BME280;20720;48.886;9.388;2023-03-31T11:44:04;97070.09;;;11.20;100.00
34482;BME280;20720;48.886;9.388;2023-03-31T11:46:40;97072.66;;;11.71;100.00
34482;BME280;20720;48.886;9.388;2023-03-31T11:49:29;97066.84;;;11.29;100.00
34482;BME280;20720;48.886;9.388;2023-03-31T11:52:05;97080.66;;;11.36;100.00
34482;BME280;20720;48.886;9.388;2023-03-31T12:00:09;97065.97;;;12.13;100.00
34482;BME280;20720;48.886;9.388;2023-03-31T12:05:41;97067.19;;;12.61;100.00
34482;BME280;20720;48.886;9.388;2023-03-31T12:08:23;97070.47;;;12.68;100.00
34482;BME280;20720;48.886;9.388;2023-03-31T12:10:59;97064.97;;;12.91;100.00
34482;BME280;20720;48.886;9.388;2023-03-31T12:13:49;97066.69;;;13.02;100.00
34482;BME280;20720;48.886;9.388;2023-03-31T12:19:01;97063.22;;;13.66;100.00
34482;BME280;20720;48.886;9.388;2023-03-31T12:21:31;97060.09;;;14.01;100.00
34482;BME280;20720;48.886;9.388;2023-03-31T12:23:58;97067.63;;;16.80;100.00
34482;BME280;20720;48.886;9.388;2023-03-31T12:26:41;97076.69;;;16.69;97.75
34482;BME280;20720;48.886;9.388;2023-03-31T12:29:21;97069.97;;;17.60;92.16
34482;BME280;20720;48.886;9.388;2023-03-31T12:31:53;97071.53;;;18.44;85.62
34482;BME280;20720;48.886;9.388;2023-03-31T12:34:21;97066.25;;;17.61;88.65
34482;BME280;20720;48.886;9.388;2023-03-31T12:36:59;97066.97;;;17.18;85.48
34482;BME280;20720;48.886;9.388;2023-03-31T12:45:25;97031.84;;;17.36;87.92
34482;BME280;20720;48.886;9.388;2023-03-31T12:48:07;97028.78;;;19.11;78.89
34482;BME280;20720;48.886;9.388;2023-03-31T12:55:55;97009.56;;;19.56;74.26
34482;BME280;20720;48.886;9.388;2023-03-31T13:06:03;96995.25;;;18.34;75.95
34482;BME280;20720;48.886;9.388;2023-03-31T13:11:17;96988.41;;;18.57;76.24
34482;BME280;20720;48.886;9.388;2023-03-31T13:13:56;96983.47;;;17.39;79.40
34482;BME280;20720;48.886;9.388;2023-03-31T13:16:23;96985.41;;;16.75;84.52
34482;BME280;20720;48.886;9.388;2023-03-31T13:18:50;96974.22;;;16.83;84.71
34482;BME280;20720;48.886;9.388;2023-03-31T13:21:16;96976.25;;;16.27;85.63
34482;BME280;20720;48.886;9.388;2023-03-31T13:23:44;96979.19;;;15.85;87.78
34482;BME280;20720;48.886;9.388;2023-03-31T13:34:27;96975.75;;;14.73;96.62
34482;BME280;20720;48.886;9.388;2023-03-31T13:37:09;96996.66;;;14.28;100.00
34482;BME280;20720;48.886;9.388;2023-03-31T13:39:53;97008.63;;;14.97;100.00
34482;BME280;20720;48.886;9.388;2023-03-31T13:45:21;97018.75;;;15.10;96.10
34482;BME280;20720;48.886;9.388;2023-03-31T13:48:01;97005.69;;;14.83;94.90
34482;BME280;20720;48.886;9.388;2023-03-31T13:56:25;96994.31;;;14.78;94.74
34482;BME280;20720;48.886;9.388;2023-03-31T14:07:12;96991.47;;;13.16;100.00
34482;BME280;20720;48.886;9.388;2023-03-31T14:09:42;96986.56;;;13.51;100.00
34482;BME280;20720;48.886;9.388;2023-03-31T14:12:33;96985.78;;;13.29;100.00
34482;BME280;20720;48.886;9.388;2023-03-31T14:14:59;96970.88;;;13.13;100.00
34482;BME280;20720;48.886;9.388;2023-03-31T14:17:29;96954.88;;;13.83;100.00
34482;BME280;20720;48.886;9.388;2023-03-31T14:22:58;96953.19;;;14.08;100.00
34482;BME280;20720;48.886;9.388;2023-03-31T14:39:05;96969.47;;;18.06;75.05
34482;BME280;20720;48.886;9.388;2023-03-31T14:41:33;96968.03;;;15.48;83.26
34482;BME280;20720;48.886;9.388;2023-03-31T14:44:04;96970.19;;;15.51;86.57
34482;BME280;20720;48.886;9.388;2023-03-31T14:46:30;96967.53;;;15.81;85.17
34482;BME280;20720;48.886;9.388;2023-03-31T14:49:27;96965.69;;;15.67;85.08
34482;BME280;20720;48.886;9.388;2023-03-31T14:51:52;96964.78;;;16.57;83.05
34482;BME280;20720;48.886;9.388;2023-03-31T14:54:19;96965.63;;;17.06;80.51
34482;BME280;20720;48.886;9.388;2023-03-31T14:56:52;96964.19;;;18.30;76.64
34482;BME280;20720;48.886;9.388;2023-03-31T14:59:22;96958.00;;;18.34;72.15
34482;BME280;20720;48.886;9.388;2023-03-31T15:01:49;96961.34;;;17.15;77.81
34482;BME280;20720;48.886;9.388;2023-03-31T15:04:18;96953.16;;;17.55;78.17
34482;BME280;20720;48.886;9.388;2023-03-31T15:06:47;96956.94;;;17.39;78.88
34482;BME280;20720;48.886;9.388;2023-03-31T15:11:45;96931.25;;;17.30;76.82
34482;BME280;20720;48.886;9.388;2023-03-31T15:14:11;96940.50;;;16.05;81.93
34482;BME280;20720;48.886;9.388;2023-03-31T15:16:41;96937.91;;;17.22;80.01
34482;BME280;20720;48.886;9.388;2023-03-31T15:19:21;96933.50;;;16.49;83.45
34482;BME280;20720;48.886;9.388;2023-03-31T15:22:01;96934.25;;;17.18;79.15
34482;BME280;20720;48.886;9.388;2023-03-31T15:24:30;96938.13;;;15.73;87.11
34482;BME280;20720;48.886;9.388;2023-03-31T15:27:03;96924.06;;;15.37;91.47
34482;BME280;20720;48.886;9.388;2023-03-31T15:29:37;96924.66;;;15.44;91.45
34482;BME280;20720;48.886;9.388;2023-03-31T15:32:11;96925.41;;;15.90;92.62